sensor_id;sensor_type;location;lat;lon;timestamp;pressure;altitude;pressure_sealevel;temperature;humidity
79431;BME280;68883;45.932;6.060;2023-04-01T00:01:46;95093.72;;;9.96;55.02
79431;BME280;68883;45.932;6.060;2023-04-01T00:04:12;95106.00;;;9.93;54.72
79431;BME280;68883;45.932;6.060;2023-04-01T00:06:38;95090.38;;;9.81;54.73
79431;BME280;68883;45.932;6.060;2023-04-01T00:09:03;95094.16;;;9.76;55.13
79431;BME280;68883;45.932;6.060;2023-04-01T00:11:29;95098.59;;;9.74;55.21
79431;BME280;68883;45.932;6.060;2023-04-01T00:13:55;95107.06;;;9.76;55.05
79431;BME280;68883;45.932;6.060;2023-04-01T00:16:21;95111.28;;;9.77;55.12
79431;BME280;68883;45.932;6.060;2023-04-01T00:18:47;95115.72;;;9.75;55.20
79431;BME280;68883;45.932;6.060;2023-04-01T00:21:13;95116.75;;;9.72;55.17
79431;BME280;68883;45.932;6.060;2023-04-01T00:23:39;95107.75;;;9.65;55.22
79431;BME280;68883;45.932;6.060;2023-04-01T00:26:05;95119.88;;;9.63;55.24
79431;BME280;68883;45.932;6.060;2023-04-01T00:28:34;95101.19;;;9.59;55.56
79431;BME280;68883;45.932;6.060;2023-04-01T00:31:04;95117.78;;;9.55;55.68
79431;BME280;68883;45.932;6.060;2023-04-01T00:33:30;95112.81;;;9.52;55.89
79431;BME280;68883;45.932;6.060;2023-04-01T00:35:56;95136.47;;;9.44;56.16
79431;BME280;68883;45.932;6.060;2023-04-01T00:38:30;95128.03;;;9.42;56.55
79431;BME280;68883;45.932;6.060;2023-04-01T00:40:57;95127.94;;;9.44;56.74
79431;BME280;68883;45.932;6.060;2023-04-01T00:43:23;95132.78;;;9.48;56.80
79431;BME280;68883;45.932;6.060;2023-04-01T00:45:49;95131.88;;;9.49;57.04
79431;BME280;68883;45.932;6.060;2023-04-01T00:48:23;95136.84;;;9.52;57.11
79431;BME280;68883;45.932;6.060;2023-04-01T00:51:02;95134.75;;;9.45;57.06
79431;BME280;68883;45.932;6.060;2023-04-01T00:53:31;95138.59;;;9.52;56.99
79431;BME280;68883;45.932;6.060;2023-04-01T00:56:05;95141.94;;;9.54;57.31
79431;BME280;68883;45.932;6.060;2023-04-01T00:58:35;95149.56;;;9.55;57.09
79431;BME280;68883;45.932;6.060;2023-04-01T01:01:03;95148.00;;;9.53;57.04
79431;BME280;68883;45.932;6.060;2023-04-01T01:03:29;95150.47;;;9.54;57.21
79431;BME280;68883;45.932;6.060;2023-04-01T01:06:14;95154.72;;;9.55;57.22
79431;BME280;68883;45.932;6.060;2023-04-01T01:11:22;95154.72;;;9.55;57.13
79431;BME280;68883;45.932;6.060;2023-04-01T01:14:10;95162.63;;;9.52;57.23
79431;BME280;68883;45.932;6.060;2023-04-01T01:16:46;95154.44;;;9.46;57.60
79431;BME280;68883;45.932;6.060;2023-04-01T01:19:47;95145.44;;;9.38;57.67
79431;BME280;68883;45.932;6.060;2023-04-01T01:27:57;95148.72;;;9.12;58.44
79431;BME280;68883;45.932;6.060;2023-04-01T01:33:17;95149.38;;;9.01;58.96
79431;BME280;68883;45.932;6.060;2023-04-01T01:35:49;95145.88;;;9.02;59.04
79431;BME280;68883;45.932;6.060;2023-04-01T01:38:23;95149.47;;;8.99;59.24
79431;BME280;68883;45.932;6.060;2023-04-01T01:41:09;95133.16;;;8.99;59.34
79431;BME280;68883;45.932;6.060;2023-04-01T01:43:42;95131.59;;;8.96;59.29
79431;BME280;68883;45.932;6.060;2023-04-01T01:46:17;95125.97;;;8.90;59.45
79431;BME280;68883;45.932;6.060;2023-04-01T01:48:47;95126.81;;;8.90;59.70
79431;BME280;68883;45.932;6.060;2023-04-01T01:51:14;95120.72;;;8.91;59.70
79431;BME280;68883;45.932;6.060;2023-04-01T01:53:40;95125.16;;;8.89;59.73
79431;BME280;68883;45.932;6.060;2023-04-01T01:56:06;95123.22;;;8.93;59.91
79431;BME280;68883;45.932;6.060;2023-04-01T01:58:41;95114.50;;;8.95;59.95
79431;BME280;68883;45.932;6.060;2023-04-01T02:01:17;95103.44;;;8.93;59.86
79431;BME280;68883;45.932;6.060;2023-04-01T02:03:45;95102.78;;;9.04;59.86
79431;BME280;68883;45.932;6.060;2023-04-01T02:06:16;95102.59;;;9.07;59.88
79431;BME280;68883;45.932;6.060;2023-04-01T02:09:04;95103.16;;;9.12;59.54
79431;BME280;68883;45.932;6.060;2023-04-01T02:11:39;95103.06;;;9.14;59.37
79431;BME280;68883;45.932;6.060;2023-04-01T02:14:15;95091.69;;;9.18;59.24
79431;BME280;68883;45.932;6.060;2023-04-01T02:19:29;95098.56;;;9.17;59.13
79431;BME280;68883;45.932;6.060;2023-04-01T02:22:01;95088.16;;;9.19;59.26
79431;BME280;68883;45.932;6.060;2023-04-01T02:24:30;95096.25;;;9.27;59.07
79431;BME280;68883;45.932;6.060;2023-04-01T02:26:57;95085.03;;;9.28;58.98
79431;BME280;68883;45.932;6.060;2023-04-01T02:29:24;95076.81;;;9.36;58.68
79431;BME280;68883;45.932;6.060;2023-04-01T02:31:53;95074.06;;;9.39;58.65
79431;BME280;68883;45.932;6.060;2023-04-01T02:34:21;95066.16;;;9.42;58.75
79431;BME280;68883;45.932;6.060;2023-04-01T02:36:49;95057.56;;;9.42;58.71
79431;BME280;68883;45.932;6.060;2023-04-01T02:39:16;95068.34;;;9.48;58.69
79431;BME280;68883;45.932;6.060;2023-04-01T02:41:43;95077.63;;;9.51;58.89
79431;BME280;68883;45.932;6.060;2023-04-01T02:44:11;95074.03;;;9.53;58.88
79431;BME280;68883;45.932;6.060;2023-04-01T02:46:37;95069.91;;;9.51;58.88
79431;BME280;68883;45.932;6.060;2023-04-01T02:49:04;95043.56;;;9.46;58.72
79431;BME280;68883;45.932;6.060;2023-04-01T02:51:30;95052.38;;;9.56;58.63
79431;BME280;68883;45.932;6.060;2023-04-01T02:53:55;95055.06;;;9.54;58.73
79431;BME280;68883;45.932;6.060;2023-04-01T02:56:21;95033.06;;;9.49;58.67
79431;BME280;68883;45.932;6.060;2023-04-01T02:58:47;95040.72;;;9.50;58.53
79431;BME280;68883;45.932;6.060;2023-04-01T03:01:14;95046.50;;;9.54;58.44
79431;BME280;68883;45.932;6.060;2023-04-01T03:03:40;95048.91;;;9.57;58.79
79431;BME280;68883;45.932;6.060;2023-04-01T03:06:10;95042.72;;;9.60;59.12
79431;BME280;68883;45.932;6.060;2023-04-01T03:08:36;95047.88;;;9.60;58.91
79431;BME280;68883;45.932;6.060;2023-04-01T03:11:02;95044.66;;;9.56;59.08
79431;BME280;68883;45.932;6.060;2023-04-01T03:13:29;95051.47;;;9.57;59.06
79431;BME280;68883;45.932;6.060;2023-04-01T03:15:54;95059.00;;;9.60;59.24
79431;BME280;68883;45.932;6.060;2023-04-01T03:18:20;95057.34;;;9.59;59.14
79431;BME280;68883;45.932;6.060;2023-04-01T03:20:46;95058.56;;;9.53;59.14
79431;BME280;68883;45.932;6.060;2023-04-01T03:23:12;95066.94;;;9.57;59.49
79431;BME280;68883;45.932;6.060;2023-04-01T03:25:38;95071.47;;;9.53;59.60
79431;BME280;68883;45.932;6.060;2023-04-01T03:28:04;95062.16;;;9.51;59.58
79431;BME280;68883;45.932;6.060;2023-04-01T03:30:30;95070.81;;;9.50;59.49
79431;BME280;68883;45.932;6.060;2023-04-01T03:32:57;95019.75;;;9.28;59.46
79431;BME280;68883;45.932;6.060;2023-04-01T03:35:23;95052.16;;;9.46;59.24
79431;BME280;68883;45.932;6.060;2023-04-01T03:37:50;95046.34;;;9.43;58.84
79431;BME280;68883;45.932;6.060;2023-04-01T03:40:16;95045.44;;;9.44;58.76
79431;BME280;68883;45.932;6.060;2023-04-01T03:42:42;95039.81;;;9.37;58.22
79431;BME280;68883;45.932;6.060;2023-04-01T03:45:08;95018.84;;;9.29;58.42
79431;BME280;68883;45.932;6.060;2023-04-01T03:47:35;95019.19;;;9.37;58.48
79431;BME280;68883;45.932;6.060;2023-04-01T03:50:01;95008.97;;;9.35;58.20
79431;BME280;68883;45.932;6.060;2023-04-01T03:52:26;95007.97;;;9.38;58.07
79431;BME280;68883;45.932;6.060;2023-04-01T03:54:52;95017.97;;;9.43;58.48
79431;BME280;68883;45.932;6.060;2023-04-01T03:57:18;95016.16;;;9.45;58.94
79431;BME280;68883;45.932;6.060;2023-04-01T03:59:44;95020.34;;;9.46;59.07
79431;BME280;68883;45.932;6.060;2023-04-01T04:02:10;95028.09;;;9.46;59.31
79431;BME280;68883;45.932;6.060;2023-04-01T04:04:36;95028.09;;;9.46;59.39
79431;BME280;68883;45.932;6.060;2023-04-01T04:07:02;95033.16;;;9.47;59.63
79431;BME280;68883;45.932;6.060;2023-04-01T04:09:36;95026.63;;;9.42;59.75
79431;BME280;68883;45.932;6.060;2023-04-01T04:12:01;95045.31;;;9.45;59.82
79431;BME280;68883;45.932;6.060;2023-04-01T04:14:28;95050.59;;;9.44;59.74
79431;BME280;68883;45.932;6.060;2023-04-01T04:16:54;95044.97;;;9.37;59.95
79431;BME280;68883;45.932;6.060;2023-04-01T04:19:20;95053.94;;;9.31;60.18
79431;BME280;68883;45.932;6.060;2023-04-01T04:21:46;95061.47;;;9.34;60.52
79431;BME280;68883;45.932;6.060;2023-04-01T04:24:12;95063.38;;;9.31;60.34
79431;BME280;68883;45.932;6.060;2023-04-01T04:26:56;95060.34;;;9.24;60.30
79431;BME280;68883;45.932;6.060;2023-04-01T04:29:22;95081.63;;;9.28;60.51
79431;BME280;68883;45.932;6.060;2023-04-01T04:31:48;95080.88;;;9.26;60.73
79431;BME280;68883;45.932;6.060;2023-04-01T04:34:14;95093.03;;;9.24;60.84
79431;BME280;68883;45.932;6.060;2023-04-01T04:36:40;95090.56;;;9.22;60.96
79431;BME280;68883;45.932;6.060;2023-04-01T04:39:05;95074.25;;;9.21;61.09
79431;BME280;68883;45.932;6.060;2023-04-01T04:41:33;95080.25;;;9.22;61.14
79431;BME280;68883;45.932;6.060;2023-04-01T04:43:59;95071.88;;;9.18;61.27
79431;BME280;68883;45.932;6.060;2023-04-01T04:46:25;95077.75;;;9.20;61.30
79431;BME280;68883;45.932;6.060;2023-04-01T04:48:56;95082.53;;;9.12;61.14
79431;BME280;68883;45.932;6.060;2023-04-01T04:51:23;95088.00;;;9.08;61.34
79431;BME280;68883;45.932;6.060;2023-04-01T04:53:49;95090.81;;;9.03;61.36
79431;BME280;68883;45.932;6.060;2023-04-01T04:56:19;95095.16;;;9.02;61.31
79431;BME280;68883;45.932;6.060;2023-04-01T04:58:53;95097.47;;;8.93;61.42
79431;BME280;68883;45.932;6.060;2023-04-01T05:01:22;95093.31;;;8.90;61.44
79431;BME280;68883;45.932;6.060;2023-04-01T05:03:48;95096.25;;;8.84;61.48
79431;BME280;68883;45.932;6.060;2023-04-01T05:06:15;95101.50;;;8.82;61.51
79431;BME280;68883;45.932;6.060;2023-04-01T05:08:42;95060.50;;;8.49;61.69
79431;BME280;68883;45.932;6.060;2023-04-01T05:11:12;95104.78;;;8.70;61.61
79431;BME280;68883;45.932;6.060;2023-04-01T05:13:38;95100.81;;;8.64;61.73
79431;BME280;68883;45.932;6.060;2023-04-01T05:16:08;95106.81;;;8.65;61.78
79431;BME280;68883;45.932;6.060;2023-04-01T05:18:33;95103.38;;;8.64;61.87
79431;BME280;68883;45.932;6.060;2023-04-01T05:20:59;95100.00;;;8.64;62.28
79431;BME280;68883;45.932;6.060;2023-04-01T05:23:25;95085.44;;;8.63;62.08
79431;BME280;68883;45.932;6.060;2023-04-01T05:25:51;95088.03;;;8.63;61.96
79431;BME280;68883;45.932;6.060;2023-04-01T05:28:19;95098.53;;;8.74;62.01
79431;BME280;68883;45.932;6.060;2023-04-01T05:30:46;95094.03;;;8.78;62.04
79431;BME280;68883;45.932;6.060;2023-04-01T05:33:29;95102.22;;;8.84;61.92
79431;BME280;68883;45.932;6.060;2023-04-01T05:35:55;95098.72;;;8.85;62.00
79431;BME280;68883;45.932;6.060;2023-04-01T05:38:21;95104.63;;;8.87;61.95
79431;BME280;68883;45.932;6.060;2023-04-01T05:40:47;95106.75;;;8.95;61.84
79431;BME280;68883;45.932;6.060;2023-04-01T05:43:13;95095.25;;;9.01;62.06
79431;BME280;68883;45.932;6.060;2023-04-01T05:45:40;95110.63;;;9.02;61.83
79431;BME280;68883;45.932;6.060;2023-04-01T05:48:14;95116.59;;;9.03;61.88
79431;BME280;68883;45.932;6.060;2023-04-01T05:50:41;95113.19;;;9.02;61.91
79431;BME280;68883;45.932;6.060;2023-04-01T05:53:08;95108.22;;;8.99;61.81
79431;BME280;68883;45.932;6.060;2023-04-01T05:55:35;95121.94;;;9.00;61.85
79431;BME280;68883;45.932;6.060;2023-04-01T05:58:02;95124.50;;;9.00;62.09
79431;BME280;68883;45.932;6.060;2023-04-01T06:00:29;95114.97;;;9.02;62.23
79431;BME280;68883;45.932;6.060;2023-04-01T06:03:00;95113.00;;;9.05;62.19
79431;BME280;68883;45.932;6.060;2023-04-01T06:05:29;95102.13;;;9.00;62.11
79431;BME280;68883;45.932;6.060;2023-04-01T06:07:59;95128.22;;;9.10;62.17
79431;BME280;68883;45.932;6.060;2023-04-01T06:30:07;95125.00;;;9.21;61.69
79431;BME280;68883;45.932;6.060;2023-04-01T06:36:01;95122.97;;;9.26;62.05
79431;BME280;68883;45.932;6.060;2023-04-01T06:47:13;95154.63;;;9.43;61.71
79431;BME280;68883;45.932;6.060;2023-04-01T06:53:56;95139.34;;;9.40;61.49
79431;BME280;68883;45.932;6.060;2023-04-01T06:56:45;95137.50;;;9.42;61.60
79431;BME280;68883;45.932;6.060;2023-04-01T06:59:22;95127.19;;;9.42;61.56
79431;BME280;68883;45.932;6.060;2023-04-01T07:02:23;95126.25;;;9.57;61.58
79431;BME280;68883;45.932;6.060;2023-04-01T07:04:53;95131.34;;;9.86;61.98
79431;BME280;68883;45.932;6.060;2023-04-01T07:10:09;95137.81;;;11.14;61.46
79431;BME280;68883;45.932;6.060;2023-04-01T07:13:04;95143.69;;;11.29;59.29
79431;BME280;68883;45.932;6.060;2023-04-01T07:16:24;95148.56;;;11.08;58.37
79431;BME280;68883;45.932;6.060;2023-04-01T07:18:58;95149.03;;;10.74;58.10
79431;BME280;68883;45.932;6.060;2023-04-01T07:21:42;95150.53;;;10.51;58.44
79431;BME280;68883;45.932;6.060;2023-04-01T07:24:39;95165.16;;;10.37;58.64
79431;BME280;68883;45.932;6.060;2023-04-01T07:27:11;95165.38;;;10.20;58.79
79431;BME280;68883;45.932;6.060;2023-04-01T07:29:38;95166.34;;;10.04;59.31
79431;BME280;68883;45.932;6.060;2023-04-01T07:32:07;95164.16;;;9.98;59.39
79431;BME280;68883;45.932;6.060;2023-04-01T07:37:22;95151.84;;;9.75;59.48
79431;BME280;68883;45.932;6.060;2023-04-01T07:49:18;95155.47;;;9.99;60.90
79431;BME280;68883;45.932;6.060;2023-04-01T07:51:57;95164.25;;;10.24;60.58
79431;BME280;68883;45.932;6.060;2023-04-01T07:54:39;95158.50;;;10.48;60.26
79431;BME280;68883;45.932;6.060;2023-04-01T08:05:31;95167.91;;;11.02;59.92
79431;BME280;68883;45.932;6.060;2023-04-01T08:08:13;95177.53;;;11.38;58.17
79431;BME280;68883;45.932;6.060;2023-04-01T08:12:01;95167.38;;;11.10;56.75
79431;BME280;68883;45.932;6.060;2023-04-01T08:23:14;95173.50;;;10.55;57.57
79431;BME280;68883;45.932;6.060;2023-04-01T08:25:50;95174.16;;;10.45;57.69
79431;BME280;68883;45.932;6.060;2023-04-01T08:28:32;95169.53;;;10.37;58.14
79431;BME280;68883;45.932;6.060;2023-04-01T08:34:16;95167.53;;;10.41;58.81
79431;BME280;68883;45.932;6.060;2023-04-01T08:36:47;95173.69;;;10.52;59.19
79431;BME280;68883;45.932;6.060;2023-04-01T08:39:24;95173.84;;;10.64;59.23
79431;BME280;68883;45.932;6.060;2023-04-01T08:42:16;95175.72;;;10.75;58.93
79431;BME280;68883;45.932;6.060;2023-04-01T08:56:20;95158.31;;;12.05;60.76
79431;BME280;68883;45.932;6.060;2023-04-01T09:19:57;95135.50;;;14.63;52.18
79431;BME280;68883;45.932;6.060;2023-04-01T09:23:16;95141.44;;;14.75;51.73
79431;BME280;68883;45.932;6.060;2023-04-01T09:28:28;95145.84;;;13.64;50.49
79431;BME280;68883;45.932;6.060;2023-04-01T09:37:36;95140.69;;;12.35;53.44
79431;BME280;68883;45.932;6.060;2023-04-01T09:43:28;95133.31;;;13.47;57.19
79431;BME280;68883;45.932;6.060;2023-04-01T09:57:15;95096.25;;;15.09;47.39
79431;BME280;68883;45.932;6.060;2023-04-01T10:05:39;95100.59;;;13.89;47.88
79431;BME280;68883;45.932;6.060;2023-04-01T10:14:30;95126.75;;;12.84;50.32
79431;BME280;68883;45.932;6.060;2023-04-01T10:31:41;95135.78;;;11.95;54.37
79431;BME280;68883;45.932;6.060;2023-04-01T10:34:34;95131.13;;;11.74;54.42
79431;BME280;68883;45.932;6.060;2023-04-01T10:38:06;95126.28;;;11.56;54.62
79431;BME280;68883;45.932;6.060;2023-04-01T11:16:08;95063.56;;;17.88;43.08
79431;BME280;68883;45.932;6.060;2023-04-01T11:19:02;95056.47;;;17.25;43.62
79431;BME280;68883;45.932;6.060;2023-04-01T11:24:15;95052.88;;;16.69;44.78
79431;BME280;68883;45.932;6.060;2023-04-01T11:27:32;95060.16;;;16.36;44.94
79431;BME280;68883;45.932;6.060;2023-04-01T11:30:14;95044.59;;;15.85;45.55
79431;BME280;68883;45.932;6.060;2023-04-01T11:42:09;95034.44;;;14.16;47.14
79431;BME280;68883;45.932;6.060;2023-04-01T11:45:12;95015.28;;;13.85;47.63
79431;BME280;68883;45.932;6.060;2023-04-01T11:48:02;95022.28;;;13.73;48.03
79431;BME280;68883;45.932;6.060;2023-04-01T11:53:31;95015.25;;;13.41;48.72
79431;BME280;68883;45.932;6.060;2023-04-01T12:26:35;95025.66;;;13.07;51.62
79431;BME280;68883;45.932;6.060;2023-04-01T12:29:12;95020.56;;;12.83;51.84
79431;BME280;68883;45.932;6.060;2023-04-01T12:37:30;95016.38;;;12.46;54.23
79431;BME280;68883;45.932;6.060;2023-04-01T12:54:52;94979.53;;;12.65;54.49
79431;BME280;68883;45.932;6.060;2023-04-01T13:02:56;94952.94;;;12.86;52.39
79431;BME280;68883;45.932;6.060;2023-04-01T13:10:45;94953.13;;;12.49;53.42
79431;BME280;68883;45.932;6.060;2023-04-01T13:26:56;94935.19;;;11.87;54.65
79431;BME280;68883;45.932;6.060;2023-04-01T13:35:39;94907.50;;;11.65;54.87
79431;BME280;68883;45.932;6.060;2023-04-01T13:40:51;94918.22;;;11.72;55.39
79431;BME280;68883;45.932;6.060;2023-04-01T13:43:31;94918.91;;;11.74;55.61
79431;BME280;68883;45.932;6.060;2023-04-01T13:51:29;94906.00;;;12.21;55.15
79431;BME280;68883;45.932;6.060;2023-04-01T14:05:49;94880.72;;;12.47;54.93
79431;BME280;68883;45.932;6.060;2023-04-01T14:08:45;94878.34;;;12.55;55.58
79431;BME280;68883;45.932;6.060;2023-04-01T14:11:20;94867.03;;;12.68;56.41
79431;BME280;68883;45.932;6.060;2023-04-01T14:19:11;94857.69;;;12.99;56.01
79431;BME280;68883;45.932;6.060;2023-04-01T14:27:36;94828.91;;;13.02;55.45
79431;BME280;68883;45.932;6.060;2023-04-01T14:33:05;94834.88;;;12.82;54.69
79431;BME280;68883;45.932;6.060;2023-04-01T14:35:46;94830.75;;;12.79;54.66
79431;BME280;68883;45.932;6.060;2023-04-01T14:49:46;94824.97;;;12.76;53.37
79431;BME280;68883;45.932;6.060;2023-04-01T14:52:39;94821.91;;;12.70;53.38
79431;BME280;68883;45.932;6.060;2023-04-01T14:55:25;94812.72;;;12.66;53.41
79431;BME280;68883;45.932;6.060;2023-04-01T14:58:08;94818.50;;;12.59;53.20
79431;BME280;68883;45.932;6.060;2023-04-01T15:01:00;94804.41;;;12.51;53.35
79431;BME280;68883;45.932;6.060;2023-04-01T15:21:55;94820.13;;;11.80;56.00
79431;BME280;68883;45.932;6.060;2023-04-01T15:24:38;94841.31;;;11.85;56.63
79431;BME280;68883;45.932;6.060;2023-04-01T15:29:56;94867.22;;;11.50;55.44
79431;BME280;68883;45.932;6.060;2023-04-01T15:35:46;94880.97;;;11.02;55.84
79431;BME280;68883;45.932;6.060;2023-04-01T15:41:35;94876.38;;;10.44;56.32
79431;BME280;68883;45.932;6.060;2023-04-01T15:47:34;94873.06;;;9.91;57.22
79431;BME280;68883;45.932;6.060;2023-04-01T15:50:26;94885.00;;;9.79;57.62
79431;BME280;68883;45.932;6.060;2023-04-01T15:56:19;94895.72;;;9.72;58.90
79431;BME280;68883;45.932;6.060;2023-04-01T16:01:59;94893.88;;;9.75;59.65
79431;BME280;68883;45.932;6.060;2023-04-01T16:07:24;94894.19;;;9.83;59.77
79431;BME280;68883;45.932;6.060;2023-04-01T16:12:52;94909.88;;;9.93;59.54
79431;BME280;68883;45.932;6.060;2023-04-01T16:26:13;94911.97;;;9.87;60.58
79431;BME280;68883;45.932;6.060;2023-04-01T16:28:57;94920.63;;;9.86;60.79
79431;BME280;68883;45.932;6.060;2023-04-01T16:31:35;94925.06;;;9.84;60.82
79431;BME280;68883;45.932;6.060;2023-04-01T16:36:51;94927.63;;;9.71;61.03
79431;BME280;68883;45.932;6.060;2023-04-01T16:39:54;94931.81;;;9.60;61.33
79431;BME280;68883;45.932;6.060;2023-04-01T16:42:41;94928.97;;;9.37;61.67
79431;BME280;68883;45.932;6.060;2023-04-01T16:47:46;94945.72;;;9.30;62.25
79431;BME280;68883;45.932;6.060;2023-04-01T16:53:02;94949.72;;;9.21;63.12
79431;BME280;68883;45.932;6.060;2023-04-01T16:55:49;94953.28;;;9.33;63.26
79431;BME280;68883;45.932;6.060;2023-04-01T16:58:57;94965.44;;;9.31;63.14
79431;BME280;68883;45.932;6.060;2023-04-01T17:04:16;94967.47;;;9.26;63.16
79431;BME280;68883;45.932;6.060;2023-04-01T17:06:57;94971.91;;;9.24;63.02
79431;BME280;68883;45.932;6.060;2023-04-01T17:09:43;94967.50;;;9.11;63.09
79431;BME280;68883;45.932;6.060;2023-04-01T17:12:19;94930.75;;;8.80;63.15
79431;BME280;68883;45.932;6.060;2023-04-01T17:20:26;94992.88;;;8.31;65.02
